Terminal Aerodrome Forecast
Issued by NWS

Home | Current Version | Previous Version | Text Only | Print | Product List | Glossary On
Versions: 1 2 3 4 5 6 7 8 9 10 11 12 13 14 15 16 17 18 19
860
FTUS43 KJKL 250712 AAA
TAFSJS
TAF AMD
KSJS 250712Z 2507/2606 VRB10G25KT 5SM -TSRA BR SCT025 BKN050CB
     FM250800 25008KT 4SM -SHRA BR VCTS SCT015 OVC035CB
     FM251000 27010KT P6SM VCSH OVC045
     FM260000 28010KT P6SM BKN035=

USA.gov is the U.S. government's official web portal to all federal, state and local government web resources and services.